Terminal Aerodrome Forecast
Issued by NWS Cleveland, OH

Home | Current Version | Previous Version | Graphics & Text | Print | Product List | Glossary On
Versions: 1 2 3 4 5 6 7 8 9 10 11 12 13 14 15
000
FTUS41 KCLE 272300
TAFYNG
TAF
KYNG 272320Z 2800/2824 36009KT P6SM SCT035 BKN250
     FM280200 03004KT P6SM BKN250
     FM280900 02004KT 5SM BR BKN250
      TEMPO 2809/2813 4SM BR
     FM281400 35006KT P6SM SCT250
     FM281800 34008KT P6SM SCT250=

USA.gov is the U.S. government's official web portal to all federal, state and local government web resources and services.